sensor_id;sensor_type;location;lat;lon;timestamp;pressure;altitude;pressure_sealevel;temperature;humidity
65010;BME280;51556;50.002;22.014;2023-04-21T00:00:14;99328.84;;;12.30;55.14
65010;BME280;51556;50.002;22.014;2023-04-21T00:02:39;99332.86;;;12.27;55.36
65010;BME280;51556;50.002;22.014;2023-04-21T00:05:08;99330.98;;;12.25;55.47
65010;BME280;51556;50.002;22.014;2023-04-21T00:07:35;99332.71;;;12.21;55.22
65010;BME280;51556;50.002;22.014;2023-04-21T00:10:08;99335.20;;;12.15;55.16
65010;BME280;51556;50.002;22.014;2023-04-21T00:12:34;99334.91;;;12.07;55.15
65010;BME280;51556;50.002;22.014;2023-04-21T00:14:59;99329.98;;;12.01;56.08
65010;BME280;51556;50.002;22.014;2023-04-21T00:17:25;99332.20;;;11.98;56.17
65010;BME280;51556;50.002;22.014;2023-04-21T00:19:51;99327.48;;;11.97;56.20
65010;BME280;51556;50.002;22.014;2023-04-21T00:22:16;99326.94;;;11.97;56.48
65010;BME280;51556;50.002;22.014;2023-04-21T00:24:43;99326.46;;;11.95;56.54
65010;BME280;51556;50.002;22.014;2023-04-21T00:27:09;99323.67;;;11.94;56.85
65010;BME280;51556;50.002;22.014;2023-04-21T00:29:36;99322.81;;;11.93;56.84
65010;BME280;51556;50.002;22.014;2023-04-21T00:32:03;99324.80;;;11.87;56.61
65010;BME280;51556;50.002;22.014;2023-04-21T00:34:32;99318.36;;;11.78;56.66
65010;BME280;51556;50.002;22.014;2023-04-21T00:36:58;99318.02;;;11.78;56.84
65010;BME280;51556;50.002;22.014;2023-04-21T00:39:23;99320.66;;;11.79;57.35
65010;BME280;51556;50.002;22.014;2023-04-21T00:41:50;99318.23;;;11.77;57.28
65010;BME280;51556;50.002;22.014;2023-04-21T00:44:15;99315.57;;;11.78;57.32
65010;BME280;51556;50.002;22.014;2023-04-21T00:46:40;99313.23;;;11.79;57.25
65010;BME280;51556;50.002;22.014;2023-04-21T00:49:07;99315.45;;;11.75;56.97
65010;BME280;51556;50.002;22.014;2023-04-21T00:51:34;99311.29;;;11.72;57.05
65010;BME280;51556;50.002;22.014;2023-04-21T00:54:02;99312.29;;;11.74;57.06
65010;BME280;51556;50.002;22.014;2023-04-21T00:56:30;99311.62;;;11.73;57.49
65010;BME280;51556;50.002;22.014;2023-04-21T00:58:57;99311.70;;;11.70;57.66
65010;BME280;51556;50.002;22.014;2023-04-21T01:01:24;99310.19;;;11.68;57.89
65010;BME280;51556;50.002;22.014;2023-04-21T01:03:50;99308.48;;;11.66;57.76
65010;BME280;51556;50.002;22.014;2023-04-21T01:06:17;99308.87;;;11.65;57.84
65010;BME280;51556;50.002;22.014;2023-04-21T01:08:45;99307.00;;;11.63;57.75
65010;BME280;51556;50.002;22.014;2023-04-21T01:11:11;99306.11;;;11.63;57.79
65010;BME280;51556;50.002;22.014;2023-04-21T01:13:38;99305.71;;;11.64;57.93
65010;BME280;51556;50.002;22.014;2023-04-21T01:16:04;99301.17;;;11.63;57.92
65010;BME280;51556;50.002;22.014;2023-04-21T01:18:30;99303.14;;;11.62;57.77
65010;BME280;51556;50.002;22.014;2023-04-21T01:20:55;99303.86;;;11.61;57.86
65010;BME280;51556;50.002;22.014;2023-04-21T01:23:22;99301.53;;;11.57;57.78
65010;BME280;51556;50.002;22.014;2023-04-21T01:25:49;99301.73;;;11.56;57.79
65010;BME280;51556;50.002;22.014;2023-04-21T01:28:21;99304.34;;;11.57;57.66
65010;BME280;51556;50.002;22.014;2023-04-21T01:30:46;99308.91;;;11.52;57.77
65010;BME280;51556;50.002;22.014;2023-04-21T01:33:12;99308.87;;;11.42;57.76
65010;BME280;51556;50.002;22.014;2023-04-21T01:35:37;99309.34;;;11.32;58.07
65010;BME280;51556;50.002;22.014;2023-04-21T01:38:03;99309.84;;;11.21;58.28
65010;BME280;51556;50.002;22.014;2023-04-21T01:40:28;99309.97;;;11.11;58.47
65010;BME280;51556;50.002;22.014;2023-04-21T01:42:53;99312.37;;;11.00;58.56
65010;BME280;51556;50.002;22.014;2023-04-21T01:45:19;99312.27;;;10.91;59.07
65010;BME280;51556;50.002;22.014;2023-04-21T01:47:45;99311.23;;;10.78;58.86
65010;BME280;51556;50.002;22.014;2023-04-21T01:50:10;99313.30;;;10.67;59.46
65010;BME280;51556;50.002;22.014;2023-04-21T01:52:36;99315.42;;;10.53;59.35
65010;BME280;51556;50.002;22.014;2023-04-21T01:55:01;99310.00;;;10.44;59.76
65010;BME280;51556;50.002;22.014;2023-04-21T01:57:27;99309.43;;;10.40;59.81
65010;BME280;51556;50.002;22.014;2023-04-21T01:59:52;99311.59;;;10.38;60.21
65010;BME280;51556;50.002;22.014;2023-04-21T02:02:18;99312.27;;;10.32;60.14
65010;BME280;51556;50.002;22.014;2023-04-21T02:04:43;99314.19;;;10.26;60.09
65010;BME280;51556;50.002;22.014;2023-04-21T02:07:09;99315.54;;;10.21;60.13
65010;BME280;51556;50.002;22.014;2023-04-21T02:09:34;99318.86;;;10.13;60.39
65010;BME280;51556;50.002;22.014;2023-04-21T02:12:00;99319.40;;;10.05;60.96
65010;BME280;51556;50.002;22.014;2023-04-21T02:14:26;99322.45;;;9.95;60.96
65010;BME280;51556;50.002;22.014;2023-04-21T02:16:52;99324.58;;;9.88;60.94
65010;BME280;51556;50.002;22.014;2023-04-21T02:19:17;99327.92;;;9.79;60.90
65010;BME280;51556;50.002;22.014;2023-04-21T02:21:43;99326.61;;;9.75;61.45
65010;BME280;51556;50.002;22.014;2023-04-21T02:24:08;99323.56;;;9.70;61.22
65010;BME280;51556;50.002;22.014;2023-04-21T02:26:33;99329.00;;;9.63;61.73
65010;BME280;51556;50.002;22.014;2023-04-21T02:28:59;99328.11;;;9.56;61.70
65010;BME280;51556;50.002;22.014;2023-04-21T02:31:24;99331.64;;;9.47;61.90
65010;BME280;51556;50.002;22.014;2023-04-21T02:33:50;99329.04;;;9.37;62.19
65010;BME280;51556;50.002;22.014;2023-04-21T02:36:15;99327.10;;;9.29;61.64
65010;BME280;51556;50.002;22.014;2023-04-21T02:38:41;99324.48;;;9.21;62.45
65010;BME280;51556;50.002;22.014;2023-04-21T02:41:06;99321.94;;;9.16;62.10
65010;BME280;51556;50.002;22.014;2023-04-21T02:43:32;99321.71;;;9.10;62.24
65010;BME280;51556;50.002;22.014;2023-04-21T02:45:58;99318.64;;;9.05;62.06
65010;BME280;51556;50.002;22.014;2023-04-21T02:48:23;99326.63;;;9.01;62.54
65010;BME280;51556;50.002;22.014;2023-04-21T02:50:49;99325.15;;;8.95;62.69
65010;BME280;51556;50.002;22.014;2023-04-21T02:53:15;99324.41;;;8.89;62.16
65010;BME280;51556;50.002;22.014;2023-04-21T02:55:41;99328.30;;;8.88;62.64
65010;BME280;51556;50.002;22.014;2023-04-21T02:58:06;99325.94;;;8.83;62.35
65010;BME280;51556;50.002;22.014;2023-04-21T03:00:32;99326.88;;;8.79;62.15
65010;BME280;51556;50.002;22.014;2023-04-21T03:02:57;99332.33;;;8.79;62.31
65010;BME280;51556;50.002;22.014;2023-04-21T03:05:23;99335.00;;;8.77;62.13
65010;BME280;51556;50.002;22.014;2023-04-21T03:07:48;99337.21;;;8.70;62.38
65010;BME280;51556;50.002;22.014;2023-04-21T03:10:14;99336.80;;;8.64;62.70
65010;BME280;51556;50.002;22.014;2023-04-21T03:12:39;99337.05;;;8.60;62.32
65010;BME280;51556;50.002;22.014;2023-04-21T03:15:05;99336.64;;;8.55;62.58
65010;BME280;51556;50.002;22.014;2023-04-21T03:17:30;99334.80;;;8.49;62.79
65010;BME280;51556;50.002;22.014;2023-04-21T03:19:56;99337.28;;;8.48;63.02
65010;BME280;51556;50.002;22.014;2023-04-21T03:22:21;99339.09;;;8.45;62.88
65010;BME280;51556;50.002;22.014;2023-04-21T03:24:47;99338.27;;;8.42;62.88
65010;BME280;51556;50.002;22.014;2023-04-21T03:27:12;99336.93;;;8.37;63.20
65010;BME280;51556;50.002;22.014;2023-04-21T03:29:38;99336.43;;;8.36;63.38
65010;BME280;51556;50.002;22.014;2023-04-21T03:32:03;99332.28;;;8.31;63.64
65010;BME280;51556;50.002;22.014;2023-04-21T03:34:28;99330.73;;;8.28;63.58
65010;BME280;51556;50.002;22.014;2023-04-21T03:36:54;99332.38;;;8.24;63.93
65010;BME280;51556;50.002;22.014;2023-04-21T03:39:20;99333.51;;;8.20;63.99
65010;BME280;51556;50.002;22.014;2023-04-21T03:41:45;99329.81;;;8.11;64.38
65010;BME280;51556;50.002;22.014;2023-04-21T03:44:11;99331.69;;;8.03;64.34
65010;BME280;51556;50.002;22.014;2023-04-21T03:46:36;99329.52;;;7.96;65.17
65010;BME280;51556;50.002;22.014;2023-04-21T03:49:02;99329.80;;;7.88;65.32
65010;BME280;51556;50.002;22.014;2023-04-21T03:51:27;99330.20;;;7.84;65.52
65010;BME280;51556;50.002;22.014;2023-04-21T03:53:53;99330.60;;;7.82;65.89
65010;BME280;51556;50.002;22.014;2023-04-21T03:56:18;99336.52;;;7.84;65.96
65010;BME280;51556;50.002;22.014;2023-04-21T03:58:44;99338.84;;;7.82;66.04
65010;BME280;51556;50.002;22.014;2023-04-21T04:01:09;99337.05;;;7.84;66.21
65010;BME280;51556;50.002;22.014;2023-04-21T04:03:34;99340.50;;;7.87;66.45
65010;BME280;51556;50.002;22.014;2023-04-21T04:06:00;99338.07;;;7.86;66.51
65010;BME280;51556;50.002;22.014;2023-04-21T04:08:28;99342.52;;;7.82;66.55
65010;BME280;51556;50.002;22.014;2023-04-21T04:10:53;99342.22;;;7.79;67.00
65010;BME280;51556;50.002;22.014;2023-04-21T04:13:19;99344.69;;;7.78;66.82
65010;BME280;51556;50.002;22.014;2023-04-21T04:15:46;99339.98;;;7.77;67.21
65010;BME280;51556;50.002;22.014;2023-04-21T04:18:12;99340.54;;;7.74;67.22
65010;BME280;51556;50.002;22.014;2023-04-21T04:20:37;99344.41;;;7.73;67.44
65010;BME280;51556;50.002;22.014;2023-04-21T04:23:03;99344.91;;;7.75;67.58
65010;BME280;51556;50.002;22.014;2023-04-21T04:25:28;99345.36;;;7.80;67.69
65010;BME280;51556;50.002;22.014;2023-04-21T04:27:54;99344.78;;;7.82;67.52
65010;BME280;51556;50.002;22.014;2023-04-21T04:30:19;99346.17;;;7.83;67.55
65010;BME280;51556;50.002;22.014;2023-04-21T04:32:45;99349.47;;;7.85;67.62
65010;BME280;51556;50.002;22.014;2023-04-21T04:35:11;99350.13;;;7.88;67.58
65010;BME280;51556;50.002;22.014;2023-04-21T04:37:38;99353.94;;;7.91;67.47
65010;BME280;51556;50.002;22.014;2023-04-21T04:40:07;99351.73;;;7.98;67.52
65010;BME280;51556;50.002;22.014;2023-04-21T04:42:36;99356.73;;;8.04;67.42
65010;BME280;51556;50.002;22.014;2023-04-21T04:45:04;99355.79;;;8.10;66.94
65010;BME280;51556;50.002;22.014;2023-04-21T04:47:30;99360.63;;;8.13;67.34
65010;BME280;51556;50.002;22.014;2023-04-21T04:49:55;99364.02;;;8.20;67.08
65010;BME280;51556;50.002;22.014;2023-04-21T04:52:21;99369.73;;;8.25;66.98
65010;BME280;51556;50.002;22.014;2023-04-21T04:54:46;99363.00;;;8.28;66.85
65010;BME280;51556;50.002;22.014;2023-04-21T04:57:12;99365.70;;;8.37;66.96
65010;BME280;51556;50.002;22.014;2023-04-21T04:59:37;99362.30;;;8.42;66.82
65010;BME280;51556;50.002;22.014;2023-04-21T05:02:02;99359.92;;;8.47;66.62
65010;BME280;51556;50.002;22.014;2023-04-21T05:04:28;99353.62;;;8.56;66.70
65010;BME280;51556;50.002;22.014;2023-04-21T05:06:53;99352.32;;;8.70;66.61
65010;BME280;51556;50.002;22.014;2023-04-21T05:09:19;99352.80;;;8.82;66.60
65010;BME280;51556;50.002;22.014;2023-04-21T05:11:45;99354.27;;;8.96;66.12
65010;BME280;51556;50.002;22.014;2023-04-21T05:14:10;99354.80;;;9.06;65.99
65010;BME280;51556;50.002;22.014;2023-04-21T05:16:35;99355.58;;;9.11;65.87
65010;BME280;51556;50.002;22.014;2023-04-21T05:19:02;99348.75;;;9.19;65.67
65010;BME280;51556;50.002;22.014;2023-04-21T05:21:27;99347.52;;;9.27;65.96
65010;BME280;51556;50.002;22.014;2023-04-21T05:23:55;99350.46;;;9.37;65.71
65010;BME280;51556;50.002;22.014;2023-04-21T05:26:21;99351.02;;;9.45;65.48
65010;BME280;51556;50.002;22.014;2023-04-21T05:28:47;99347.14;;;9.54;65.43
65010;BME280;51556;50.002;22.014;2023-04-21T05:31:12;99348.54;;;9.62;65.25
65010;BME280;51556;50.002;22.014;2023-04-21T05:33:38;99352.27;;;9.68;64.75
65010;BME280;51556;50.002;22.014;2023-04-21T05:36:07;99353.33;;;9.75;64.93
65010;BME280;51556;50.002;22.014;2023-04-21T05:38:36;99352.77;;;9.84;64.93
65010;BME280;51556;50.002;22.014;2023-04-21T05:41:03;99348.77;;;9.91;64.76
65010;BME280;51556;50.002;22.014;2023-04-21T05:43:28;99351.77;;;9.98;64.93
65010;BME280;51556;50.002;22.014;2023-04-21T05:45:54;99352.75;;;10.08;64.27
65010;BME280;51556;50.002;22.014;2023-04-21T05:48:19;99358.07;;;10.14;64.01
65010;BME280;51556;50.002;22.014;2023-04-21T05:50:45;99358.23;;;10.23;64.00
65010;BME280;51556;50.002;22.014;2023-04-21T05:53:10;99353.08;;;10.33;63.97
65010;BME280;51556;50.002;22.014;2023-04-21T05:55:36;99353.02;;;10.35;63.44
65010;BME280;51556;50.002;22.014;2023-04-21T05:58:02;99352.86;;;10.34;63.38
65010;BME280;51556;50.002;22.014;2023-04-21T06:00:28;99352.89;;;10.40;63.35
65010;BME280;51556;50.002;22.014;2023-04-21T06:02:53;99349.89;;;10.53;62.98
65010;BME280;51556;50.002;22.014;2023-04-21T06:05:19;99347.05;;;10.69;62.61
65010;BME280;51556;50.002;22.014;2023-04-21T06:07:44;99342.94;;;10.84;62.35
65010;BME280;51556;50.002;22.014;2023-04-21T06:10:11;99343.88;;;10.95;61.41
65010;BME280;51556;50.002;22.014;2023-04-21T06:12:37;99343.58;;;11.06;60.78
65010;BME280;51556;50.002;22.014;2023-04-21T06:15:02;99335.76;;;11.14;60.73
65010;BME280;51556;50.002;22.014;2023-04-21T06:17:28;99341.33;;;11.22;60.20
65010;BME280;51556;50.002;22.014;2023-04-21T06:19:53;99343.55;;;11.31;59.18
65010;BME280;51556;50.002;22.014;2023-04-21T06:22:22;99337.51;;;11.39;58.62
65010;BME280;51556;50.002;22.014;2023-04-21T06:24:47;99339.03;;;11.48;58.08
65010;BME280;51556;50.002;22.014;2023-04-21T06:27:13;99336.39;;;11.59;58.05
65010;BME280;51556;50.002;22.014;2023-04-21T06:29:39;99335.05;;;11.68;57.42
65010;BME280;51556;50.002;22.014;2023-04-21T06:32:06;99332.73;;;11.75;57.07
65010;BME280;51556;50.002;22.014;2023-04-21T06:34:31;99332.56;;;11.81;56.58
65010;BME280;51556;50.002;22.014;2023-04-21T06:36:56;99330.26;;;11.87;56.20
65010;BME280;51556;50.002;22.014;2023-04-21T06:39:22;99329.33;;;11.94;55.65
65010;BME280;51556;50.002;22.014;2023-04-21T06:41:47;99327.83;;;12.02;55.45
65010;BME280;51556;50.002;22.014;2023-04-21T06:44:13;99326.81;;;12.12;55.49
65010;BME280;51556;50.002;22.014;2023-04-21T06:46:41;99329.08;;;12.19;55.18
65010;BME280;51556;50.002;22.014;2023-04-21T06:49:07;99332.75;;;12.25;55.11
65010;BME280;51556;50.002;22.014;2023-04-21T06:51:33;99333.24;;;12.31;54.72
65010;BME280;51556;50.002;22.014;2023-04-21T06:53:59;99328.80;;;12.37;54.15
65010;BME280;51556;50.002;22.014;2023-04-21T06:56:26;99329.56;;;12.41;53.75
65010;BME280;51556;50.002;22.014;2023-04-21T06:58:51;99329.70;;;12.47;53.54
65010;BME280;51556;50.002;22.014;2023-04-21T07:01:17;99327.02;;;12.54;52.92
65010;BME280;51556;50.002;22.014;2023-04-21T07:03:42;99326.41;;;12.61;53.16
65010;BME280;51556;50.002;22.014;2023-04-21T07:06:08;99326.96;;;12.70;52.99
65010;BME280;51556;50.002;22.014;2023-04-21T07:08:33;99328.85;;;12.82;52.55
65010;BME280;51556;50.002;22.014;2023-04-21T07:10:59;99328.70;;;12.92;51.62
65010;BME280;51556;50.002;22.014;2023-04-21T07:13:24;99326.10;;;13.00;51.28
65010;BME280;51556;50.002;22.014;2023-04-21T07:15:50;99323.97;;;13.10;50.62
65010;BME280;51556;50.002;22.014;2023-04-21T07:18:16;99321.09;;;13.11;50.58
65010;BME280;51556;50.002;22.014;2023-04-21T07:20:41;99323.58;;;13.16;50.88
65010;BME280;51556;50.002;22.014;2023-04-21T07:23:06;99322.48;;;13.22;50.01
65010;BME280;51556;50.002;22.014;2023-04-21T07:25:32;99319.80;;;13.28;49.87
65010;BME280;51556;50.002;22.014;2023-04-21T07:27:57;99322.77;;;13.38;50.27
65010;BME280;51556;50.002;22.014;2023-04-21T07:30:23;99325.91;;;13.49;49.90
65010;BME280;51556;50.002;22.014;2023-04-21T07:32:48;99320.73;;;13.55;49.35
65010;BME280;51556;50.002;22.014;2023-04-21T07:35:14;99321.48;;;13.58;48.48
65010;BME280;51556;50.002;22.014;2023-04-21T07:37:39;99323.48;;;13.62;48.90
65010;BME280;51556;50.002;22.014;2023-04-21T07:40:07;99320.16;;;13.69;49.51
65010;BME280;51556;50.002;22.014;2023-04-21T07:42:32;99317.84;;;13.78;49.29
65010;BME280;51556;50.002;22.014;2023-04-21T07:44:58;99319.71;;;13.89;49.16
65010;BME280;51556;50.002;22.014;2023-04-21T07:47:25;99316.91;;;13.98;47.33
65010;BME280;51556;50.002;22.014;2023-04-21T07:49:51;99316.39;;;14.02;47.42
65010;BME280;51556;50.002;22.014;2023-04-21T07:52:16;99313.27;;;14.10;47.59
65010;BME280;51556;50.002;22.014;2023-04-21T07:54:42;99315.37;;;14.18;47.08
65010;BME280;51556;50.002;22.014;2023-04-21T07:57:08;99307.33;;;14.24;46.67
65010;BME280;51556;50.002;22.014;2023-04-21T07:59:33;99307.95;;;14.31;46.44
65010;BME280;51556;50.002;22.014;2023-04-21T08:01:58;99305.91;;;14.37;46.04
65010;BME280;51556;50.002;22.014;2023-04-21T08:04:24;99301.81;;;14.43;44.93
65010;BME280;51556;50.002;22.014;2023-04-21T08:06:50;99303.22;;;14.47;45.33
65010;BME280;51556;50.002;22.014;2023-04-21T08:09:15;99301.14;;;14.58;45.76
65010;BME280;51556;50.002;22.014;2023-04-21T08:11:41;99303.98;;;14.71;45.31
65010;BME280;51556;50.002;22.014;2023-04-21T08:14:06;99301.27;;;14.80;44.69
65010;BME280;51556;50.002;22.014;2023-04-21T08:16:34;99299.31;;;14.88;44.22
65010;BME280;51556;50.002;22.014;2023-04-21T08:18:59;99296.84;;;14.96;44.57
65010;BME280;51556;50.002;22.014;2023-04-21T08:21:25;99303.66;;;15.02;44.24
65010;BME280;51556;50.002;22.014;2023-04-21T08:23:50;99304.08;;;15.09;44.57
65010;BME280;51556;50.002;22.014;2023-04-21T08:26:16;99304.83;;;15.19;44.27
65010;BME280;51556;50.002;22.014;2023-04-21T08:28:45;99297.56;;;15.30;43.02
65010;BME280;51556;50.002;22.014;2023-04-21T08:31:12;99295.60;;;15.38;43.80
65010;BME280;51556;50.002;22.014;2023-04-21T08:33:38;99296.23;;;15.48;43.07
65010;BME280;51556;50.002;22.014;2023-04-21T08:36:04;99293.44;;;15.55;43.70
65010;BME280;51556;50.002;22.014;2023-04-21T08:38:29;99294.14;;;15.67;44.27
65010;BME280;51556;50.002;22.014;2023-04-21T08:40:58;99296.23;;;15.79;42.89
65010;BME280;51556;50.002;22.014;2023-04-21T08:43:24;99292.70;;;15.85;42.23
65010;BME280;51556;50.002;22.014;2023-04-21T08:45:50;99292.34;;;15.93;42.31
65010;BME280;51556;50.002;22.014;2023-04-21T08:48:18;99294.69;;;16.02;41.35
65010;BME280;51556;50.002;22.014;2023-04-21T08:50:47;99292.04;;;16.10;40.67
65010;BME280;51556;50.002;22.014;2023-04-21T08:53:13;99287.10;;;16.17;40.70
65010;BME280;51556;50.002;22.014;2023-04-21T08:55:40;99282.84;;;16.24;40.29
65010;BME280;51556;50.002;22.014;2023-04-21T08:58:06;99282.04;;;16.36;39.91
65010;BME280;51556;50.002;22.014;2023-04-21T09:00:34;99283.95;;;16.44;39.39
65010;BME280;51556;50.002;22.014;2023-04-21T09:03:00;99275.73;;;16.48;38.16
65010;BME280;51556;50.002;22.014;2023-04-21T09:05:27;99274.59;;;16.53;38.57
65010;BME280;51556;50.002;22.014;2023-04-21T09:08:06;99271.58;;;16.60;38.02
65010;BME280;51556;50.002;22.014;2023-04-21T09:10:47;99269.84;;;16.55;37.32
65010;BME280;51556;50.002;22.014;2023-04-21T09:13:13;99269.91;;;16.51;38.75
65010;BME280;51556;50.002;22.014;2023-04-21T09:15:40;99266.67;;;16.55;39.11
65010;BME280;51556;50.002;22.014;2023-04-21T09:20:44;99254.27;;;16.79;38.61
65010;BME280;51556;50.002;22.014;2023-04-21T09:23:10;99252.11;;;16.92;39.36
65010;BME280;51556;50.002;22.014;2023-04-21T09:25:41;99256.48;;;17.04;38.21
65010;BME280;51556;50.002;22.014;2023-04-21T09:28:08;99253.81;;;17.04;35.80
65010;BME280;51556;50.002;22.014;2023-04-21T09:30:38;99253.59;;;16.98;36.06
65010;BME280;51556;50.002;22.014;2023-04-21T09:33:04;99256.14;;;17.00;36.79
65010;BME280;51556;50.002;22.014;2023-04-21T09:35:36;99255.94;;;17.14;37.41
65010;BME280;51556;50.002;22.014;2023-04-21T09:38:09;99252.62;;;17.29;37.93
65010;BME280;51556;50.002;22.014;2023-04-21T09:40:35;99250.23;;;17.44;36.48
65010;BME280;51556;50.002;22.014;2023-04-21T09:43:01;99250.73;;;17.50;36.54
65010;BME280;51556;50.002;22.014;2023-04-21T09:45:29;99251.16;;;17.52;35.98
65010;BME280;51556;50.002;22.014;2023-04-21T09:47:58;99253.66;;;17.52;35.27
65010;BME280;51556;50.002;22.014;2023-04-21T09:50:26;99253.06;;;17.56;35.29
65010;BME280;51556;50.002;22.014;2023-04-21T09:52:54;99251.25;;;17.63;35.19
65010;BME280;51556;50.002;22.014;2023-04-21T09:55:27;99245.55;;;17.76;36.06
65010;BME280;51556;50.002;22.014;2023-04-21T09:57:58;99242.80;;;17.96;36.64
65010;BME280;51556;50.002;22.014;2023-04-21T10:00:27;99236.96;;;18.11;34.93
65010;BME280;51556;50.002;22.014;2023-04-21T10:02:54;99234.27;;;18.02;34.47
65010;BME280;51556;50.002;22.014;2023-04-21T10:05:21;99231.01;;;17.97;33.94
65010;BME280;51556;50.002;22.014;2023-04-21T10:07:47;99232.40;;;18.04;34.11
65010;BME280;51556;50.002;22.014;2023-04-21T10:10:24;99231.81;;;18.20;35.35
65010;BME280;51556;50.002;22.014;2023-04-21T10:12:50;99226.51;;;18.34;33.02
65010;BME280;51556;50.002;22.014;2023-04-21T10:18:11;99219.86;;;18.71;34.16
65010;BME280;51556;50.002;22.014;2023-04-21T10:21:06;99215.35;;;18.95;33.89
65010;BME280;51556;50.002;22.014;2023-04-21T10:28:39;99217.23;;;19.13;32.15
65010;BME280;51556;50.002;22.014;2023-04-21T10:36:41;99203.30;;;19.35;32.58
65010;BME280;51556;50.002;22.014;2023-04-21T10:39:06;99196.30;;;19.51;31.74
65010;BME280;51556;50.002;22.014;2023-04-21T10:41:33;99200.04;;;19.62;32.11
65010;BME280;51556;50.002;22.014;2023-04-21T10:46:35;99192.88;;;19.83;31.80
65010;BME280;51556;50.002;22.014;2023-04-21T10:49:08;99188.86;;;19.98;31.22
65010;BME280;51556;50.002;22.014;2023-04-21T10:54:25;99184.25;;;20.43;31.09
65010;BME280;51556;50.002;22.014;2023-04-21T10:56:52;99183.54;;;20.56;30.92
65010;BME280;51556;50.002;22.014;2023-04-21T10:59:19;99187.70;;;20.70;29.57
65010;BME280;51556;50.002;22.014;2023-04-21T11:01:45;99183.70;;;20.79;29.50
65010;BME280;51556;50.002;22.014;2023-04-21T11:04:14;99178.20;;;20.88;29.83
65010;BME280;51556;50.002;22.014;2023-04-21T11:06:40;99180.65;;;21.02;29.10
65010;BME280;51556;50.002;22.014;2023-04-21T11:09:05;99182.51;;;21.13;27.64
65010;BME280;51556;50.002;22.014;2023-04-21T11:11:31;99183.39;;;21.21;27.15
65010;BME280;51556;50.002;22.014;2023-04-21T11:13:59;99179.39;;;21.17;26.66
65010;BME280;51556;50.002;22.014;2023-04-21T11:16:25;99180.64;;;21.12;26.55
65010;BME280;51556;50.002;22.014;2023-04-21T11:18:51;99177.52;;;21.28;27.55
65010;BME280;51556;50.002;22.014;2023-04-21T11:21:18;99178.05;;;21.50;27.26
65010;BME280;51556;50.002;22.014;2023-04-21T11:23:56;99182.55;;;21.67;26.42
65010;BME280;51556;50.002;22.014;2023-04-21T11:26:48;99175.70;;;21.67;26.12
65010;BME280;51556;50.002;22.014;2023-04-21T11:29:14;99171.95;;;21.77;25.67
65010;BME280;51556;50.002;22.014;2023-04-21T11:31:41;99170.48;;;21.75;26.07
65010;BME280;51556;50.002;22.014;2023-04-21T11:34:08;99169.83;;;21.74;27.13
65010;BME280;51556;50.002;22.014;2023-04-21T11:36:42;99172.84;;;21.93;26.48
65010;BME280;51556;50.002;22.014;2023-04-21T11:39:13;99175.64;;;21.92;25.96
65010;BME280;51556;50.002;22.014;2023-04-21T11:41:42;99169.65;;;21.95;25.86
65010;BME280;51556;50.002;22.014;2023-04-21T11:44:08;99159.72;;;22.11;26.51
65010;BME280;51556;50.002;22.014;2023-04-21T11:46:43;99161.91;;;22.38;26.41
65010;BME280;51556;50.002;22.014;2023-04-21T11:52:34;99159.06;;;23.02;26.62
65010;BME280;51556;50.002;22.014;2023-04-21T11:55:02;99154.77;;;23.24;25.06
65010;BME280;51556;50.002;22.014;2023-04-21T11:57:30;99151.95;;;23.39;23.40
65010;BME280;51556;50.002;22.014;2023-04-21T12:00:01;99145.52;;;23.52;23.96
65010;BME280;51556;50.002;22.014;2023-04-21T12:02:37;99141.70;;;23.70;24.88
65010;BME280;51556;50.002;22.014;2023-04-21T12:05:04;99142.06;;;23.74;25.11
65010;BME280;51556;50.002;22.014;2023-04-21T12:07:32;99137.30;;;23.69;25.98
65010;BME280;51556;50.002;22.014;2023-04-21T12:09:58;99141.85;;;23.50;25.08
65010;BME280;51556;50.002;22.014;2023-04-21T12:12:24;99144.53;;;23.26;25.27
65010;BME280;51556;50.002;22.014;2023-04-21T12:14:51;99142.69;;;23.31;25.98
65010;BME280;51556;50.002;22.014;2023-04-21T12:17:17;99136.41;;;23.56;24.71
65010;BME280;51556;50.002;22.014;2023-04-21T12:19:43;99130.16;;;23.81;24.37
65010;BME280;51556;50.002;22.014;2023-04-21T12:22:13;99124.91;;;24.09;23.19
65010;BME280;51556;50.002;22.014;2023-04-21T12:24:39;99122.55;;;24.20;23.62
65010;BME280;51556;50.002;22.014;2023-04-21T12:27:06;99121.06;;;24.16;23.52
65010;BME280;51556;50.002;22.014;2023-04-21T12:29:32;99119.08;;;24.04;23.84
65010;BME280;51556;50.002;22.014;2023-04-21T12:32:02;99121.09;;;24.18;22.55
65010;BME280;51556;50.002;22.014;2023-04-21T12:34:28;99119.10;;;24.22;22.73
65010;BME280;51556;50.002;22.014;2023-04-21T12:36:54;99124.30;;;23.97;23.75
65010;BME280;51556;50.002;22.014;2023-04-21T12:39:19;99120.13;;;24.21;23.40
65010;BME280;51556;50.002;22.014;2023-04-21T12:41:51;99116.01;;;24.56;23.52
65010;BME280;51556;50.002;22.014;2023-04-21T12:44:23;99109.70;;;24.87;22.17
65010;BME280;51556;50.002;22.014;2023-04-21T12:46:50;99111.68;;;24.95;22.57
65010;BME280;51556;50.002;22.014;2023-04-21T12:49:16;99108.73;;;24.75;21.74
65010;BME280;51556;50.002;22.014;2023-04-21T12:51:42;99108.70;;;24.41;21.82
65010;BME280;51556;50.002;22.014;2023-04-21T12:54:09;99110.54;;;24.11;22.51
65010;BME280;51556;50.002;22.014;2023-04-21T12:56:35;99101.99;;;23.89;22.28
65010;BME280;51556;50.002;22.014;2023-04-21T12:59:01;99106.98;;;23.83;23.74
65010;BME280;51556;50.002;22.014;2023-04-21T13:01:26;99107.81;;;23.84;23.20
65010;BME280;51556;50.002;22.014;2023-04-21T13:03:52;99103.04;;;23.83;23.29
65010;BME280;51556;50.002;22.014;2023-04-21T13:06:17;99099.73;;;23.88;24.46
65010;BME280;51556;50.002;22.014;2023-04-21T13:08:43;99099.98;;;24.09;23.55
65010;BME280;51556;50.002;22.014;2023-04-21T13:11:08;99095.17;;;23.91;22.46
65010;BME280;51556;50.002;22.014;2023-04-21T13:13:34;99093.67;;;23.55;22.28